sensor_id;sensor_type;location;lat;lon;timestamp;temperature;humidity
19435;DHT22;9853;50.848;4.108;2023-06-01T00:01:17;15.50;99.90
19435;DHT22;9853;50.848;4.108;2023-06-01T00:03:24;15.50;99.90
19435;DHT22;9853;50.848;4.108;2023-06-01T00:05:26;15.50;99.90
19435;DHT22;9853;50.848;4.108;2023-06-01T00:07:27;15.60;99.90
19435;DHT22;9853;50.848;4.108;2023-06-01T00:09:30;15.50;99.90
19435;DHT22;9853;50.848;4.108;2023-06-01T00:11:31;15.50;99.90
19435;DHT22;9853;50.848;4.108;2023-06-01T00:13:35;15.50;99.90
19435;DHT22;9853;50.848;4.108;2023-06-01T00:15:39;15.40;99.90
19435;DHT22;9853;50.848;4.108;2023-06-01T00:17:44;15.40;99.90
19435;DHT22;9853;50.848;4.108;2023-06-01T00:19:45;15.40;99.90
19435;DHT22;9853;50.848;4.108;2023-06-01T00:21:45;15.40;99.90
19435;DHT22;9853;50.848;4.108;2023-06-01T00:23:50;15.40;99.90
19435;DHT22;9853;50.848;4.108;2023-06-01T00:25:58;15.30;99.90
19435;DHT22;9853;50.848;4.108;2023-06-01T00:27:58;15.30;99.90
19435;DHT22;9853;50.848;4.108;2023-06-01T00:30:02;15.20;99.90
19435;DHT22;9853;50.848;4.108;2023-06-01T00:32:03;15.20;99.90
19435;DHT22;9853;50.848;4.108;2023-06-01T00:34:07;15.20;99.90
19435;DHT22;9853;50.848;4.108;2023-06-01T00:36:19;15.20;99.90
19435;DHT22;9853;50.848;4.108;2023-06-01T00:38:20;15.10;99.90
19435;DHT22;9853;50.848;4.108;2023-06-01T00:40:21;15.10;99.90
19435;DHT22;9853;50.848;4.108;2023-06-01T00:42:21;15.00;99.90
19435;DHT22;9853;50.848;4.108;2023-06-01T00:44:23;15.00;99.90
19435;DHT22;9853;50.848;4.108;2023-06-01T00:46:31;15.00;99.90
19435;DHT22;9853;50.848;4.108;2023-06-01T00:48:32;15.00;99.90
19435;DHT22;9853;50.848;4.108;2023-06-01T00:50:35;14.90;99.90
19435;DHT22;9853;50.848;4.108;2023-06-01T00:52:38;14.90;99.90
19435;DHT22;9853;50.848;4.108;2023-06-01T00:54:47;14.80;99.90
19435;DHT22;9853;50.848;4.108;2023-06-01T00:57:03;14.80;99.90
19435;DHT22;9853;50.848;4.108;2023-06-01T00:59:04;14.70;99.90
19435;DHT22;9853;50.848;4.108;2023-06-01T01:01:10;14.70;99.90
19435;DHT22;9853;50.848;4.108;2023-06-01T01:03:23;14.70;99.90
19435;DHT22;9853;50.848;4.108;2023-06-01T01:05:35;14.70;99.90
19435;DHT22;9853;50.848;4.108;2023-06-01T01:08:00;14.70;99.90
19435;DHT22;9853;50.848;4.108;2023-06-01T01:10:11;14.60;99.90
19435;DHT22;9853;50.848;4.108;2023-06-01T01:13:01;14.50;99.90
19435;DHT22;9853;50.848;4.108;2023-06-01T01:15:29;14.40;99.90
19435;DHT22;9853;50.848;4.108;2023-06-01T01:17:40;14.50;99.90
19435;DHT22;9853;50.848;4.108;2023-06-01T01:19:53;14.40;99.90
19435;DHT22;9853;50.848;4.108;2023-06-01T01:22:20;14.40;99.90
19435;DHT22;9853;50.848;4.108;2023-06-01T01:24:50;14.40;99.90
19435;DHT22;9853;50.848;4.108;2023-06-01T01:27:10;14.30;99.90
19435;DHT22;9853;50.848;4.108;2023-06-01T01:29:15;14.40;99.90
19435;DHT22;9853;50.848;4.108;2023-06-01T01:31:25;14.30;99.90
19435;DHT22;9853;50.848;4.108;2023-06-01T01:33:32;14.30;99.90
19435;DHT22;9853;50.848;4.108;2023-06-01T01:35:36;14.10;99.90
19435;DHT22;9853;50.848;4.108;2023-06-01T01:37:37;14.10;99.90
19435;DHT22;9853;50.848;4.108;2023-06-01T01:39:52;14.10;99.90
19435;DHT22;9853;50.848;4.108;2023-06-01T01:41:55;14.10;99.90
19435;DHT22;9853;50.848;4.108;2023-06-01T01:43:56;14.10;99.90
19435;DHT22;9853;50.848;4.108;2023-06-01T01:50:52;14.20;99.90
19435;DHT22;9853;50.848;4.108;2023-06-01T01:53:01;14.20;99.90
19435;DHT22;9853;50.848;4.108;2023-06-01T01:55:08;14.20;99.90
19435;DHT22;9853;50.848;4.108;2023-06-01T01:57:11;14.10;99.90
19435;DHT22;9853;50.848;4.108;2023-06-01T01:59:18;14.10;99.90
19435;DHT22;9853;50.848;4.108;2023-06-01T02:01:22;14.10;99.90
19435;DHT22;9853;50.848;4.108;2023-06-01T02:03:23;14.00;99.90
19435;DHT22;9853;50.848;4.108;2023-06-01T02:05:24;13.90;99.90
19435;DHT22;9853;50.848;4.108;2023-06-01T02:07:29;13.90;99.90
19435;DHT22;9853;50.848;4.108;2023-06-01T02:09:33;14.00;99.90
19435;DHT22;9853;50.848;4.108;2023-06-01T02:11:34;13.90;99.90
19435;DHT22;9853;50.848;4.108;2023-06-01T02:13:43;13.90;99.90
19435;DHT22;9853;50.848;4.108;2023-06-01T02:15:48;14.00;99.90
19435;DHT22;9853;50.848;4.108;2023-06-01T02:17:50;14.00;99.90
19435;DHT22;9853;50.848;4.108;2023-06-01T02:19:56;13.90;99.90
19435;DHT22;9853;50.848;4.108;2023-06-01T02:21:58;13.80;99.90
19435;DHT22;9853;50.848;4.108;2023-06-01T02:24:01;13.90;99.90
19435;DHT22;9853;50.848;4.108;2023-06-01T02:26:06;14.00;99.90
19435;DHT22;9853;50.848;4.108;2023-06-01T02:28:16;13.90;99.90
19435;DHT22;9853;50.848;4.108;2023-06-01T02:30:20;13.80;99.90
19435;DHT22;9853;50.848;4.108;2023-06-01T02:32:23;13.70;99.90
19435;DHT22;9853;50.848;4.108;2023-06-01T02:34:32;13.70;99.90
19435;DHT22;9853;50.848;4.108;2023-06-01T02:36:37;13.70;99.90
19435;DHT22;9853;50.848;4.108;2023-06-01T02:38:38;13.60;99.90
19435;DHT22;9853;50.848;4.108;2023-06-01T02:40:42;13.60;99.90
19435;DHT22;9853;50.848;4.108;2023-06-01T02:42:45;13.60;99.90
19435;DHT22;9853;50.848;4.108;2023-06-01T02:44:47;13.50;99.90
19435;DHT22;9853;50.848;4.108;2023-06-01T02:46:55;13.40;99.90
19435;DHT22;9853;50.848;4.108;2023-06-01T02:48:56;13.40;99.90
19435;DHT22;9853;50.848;4.108;2023-06-01T02:51:00;13.30;99.90
19435;DHT22;9853;50.848;4.108;2023-06-01T02:53:01;13.30;99.90
19435;DHT22;9853;50.848;4.108;2023-06-01T02:55:02;13.30;99.90
19435;DHT22;9853;50.848;4.108;2023-06-01T02:57:38;13.40;99.90
19435;DHT22;9853;50.848;4.108;2023-06-01T02:59:49;13.30;99.90
19435;DHT22;9853;50.848;4.108;2023-06-01T03:01:50;13.30;99.90
19435;DHT22;9853;50.848;4.108;2023-06-01T03:04:02;13.30;99.90
19435;DHT22;9853;50.848;4.108;2023-06-01T03:06:05;13.30;99.90
19435;DHT22;9853;50.848;4.108;2023-06-01T03:08:30;13.30;99.90
19435;DHT22;9853;50.848;4.108;2023-06-01T03:10:31;13.30;99.90
19435;DHT22;9853;50.848;4.108;2023-06-01T03:13:01;13.30;99.90
19435;DHT22;9853;50.848;4.108;2023-06-01T03:15:01;13.10;99.90
19435;DHT22;9853;50.848;4.108;2023-06-01T03:17:02;13.20;99.90
19435;DHT22;9853;50.848;4.108;2023-06-01T03:19:03;13.20;99.90
19435;DHT22;9853;50.848;4.108;2023-06-01T03:21:04;13.20;99.90
19435;DHT22;9853;50.848;4.108;2023-06-01T03:23:04;13.10;99.90
19435;DHT22;9853;50.848;4.108;2023-06-01T03:25:06;13.10;99.90
19435;DHT22;9853;50.848;4.108;2023-06-01T03:27:07;13.10;99.90
19435;DHT22;9853;50.848;4.108;2023-06-01T03:29:13;13.10;99.90
19435;DHT22;9853;50.848;4.108;2023-06-01T03:31:17;13.10;99.90
19435;DHT22;9853;50.848;4.108;2023-06-01T03:33:22;13.00;99.90
19435;DHT22;9853;50.848;4.108;2023-06-01T03:35:23;13.00;99.90
19435;DHT22;9853;50.848;4.108;2023-06-01T03:37:24;12.90;99.90
19435;DHT22;9853;50.848;4.108;2023-06-01T03:39:24;12.80;99.90
19435;DHT22;9853;50.848;4.108;2023-06-01T03:41:25;12.90;99.90
19435;DHT22;9853;50.848;4.108;2023-06-01T03:43:26;13.00;99.90
19435;DHT22;9853;50.848;4.108;2023-06-01T03:45:27;13.10;99.90
19435;DHT22;9853;50.848;4.108;2023-06-01T03:47:28;13.10;99.90
19435;DHT22;9853;50.848;4.108;2023-06-01T03:49:28;13.10;99.90
19435;DHT22;9853;50.848;4.108;2023-06-01T03:51:33;13.10;99.90
19435;DHT22;9853;50.848;4.108;2023-06-01T03:53:36;13.00;99.90
19435;DHT22;9853;50.848;4.108;2023-06-01T03:55:37;12.90;99.90
19435;DHT22;9853;50.848;4.108;2023-06-01T03:58:01;12.90;99.90
19435;DHT22;9853;50.848;4.108;2023-06-01T04:00:07;12.90;99.90
19435;DHT22;9853;50.848;4.108;2023-06-01T04:02:24;12.90;99.90
19435;DHT22;9853;50.848;4.108;2023-06-01T04:04:28;12.80;99.90
19435;DHT22;9853;50.848;4.108;2023-06-01T04:06:30;12.80;99.90
19435;DHT22;9853;50.848;4.108;2023-06-01T04:08:39;12.70;99.90
19435;DHT22;9853;50.848;4.108;2023-06-01T04:10:50;12.60;99.90
19435;DHT22;9853;50.848;4.108;2023-06-01T04:12:52;12.50;99.90
19435;DHT22;9853;50.848;4.108;2023-06-01T04:14:54;12.50;99.90
19435;DHT22;9853;50.848;4.108;2023-06-01T04:16:56;12.40;99.90
19435;DHT22;9853;50.848;4.108;2023-06-01T04:18:57;12.40;99.90
19435;DHT22;9853;50.848;4.108;2023-06-01T04:21:08;12.40;99.90
19435;DHT22;9853;50.848;4.108;2023-06-01T04:23:09;12.40;99.90
19435;DHT22;9853;50.848;4.108;2023-06-01T04:25:13;12.40;99.90
19435;DHT22;9853;50.848;4.108;2023-06-01T04:27:18;12.30;99.90
19435;DHT22;9853;50.848;4.108;2023-06-01T04:29:25;12.40;99.90
19435;DHT22;9853;50.848;4.108;2023-06-01T04:31:30;12.40;99.90
19435;DHT22;9853;50.848;4.108;2023-06-01T04:33:33;12.50;99.90
19435;DHT22;9853;50.848;4.108;2023-06-01T04:35:43;12.50;99.90
19435;DHT22;9853;50.848;4.108;2023-06-01T04:37:47;12.50;99.90
19435;DHT22;9853;50.848;4.108;2023-06-01T04:39:50;12.50;99.90
19435;DHT22;9853;50.848;4.108;2023-06-01T04:41:52;12.50;99.90
19435;DHT22;9853;50.848;4.108;2023-06-01T04:43:54;12.40;99.90
19435;DHT22;9853;50.848;4.108;2023-06-01T04:45:55;12.40;99.90
19435;DHT22;9853;50.848;4.108;2023-06-01T04:47:58;12.30;99.90
19435;DHT22;9853;50.848;4.108;2023-06-01T04:50:10;12.30;99.90
19435;DHT22;9853;50.848;4.108;2023-06-01T04:52:10;12.20;99.90
19435;DHT22;9853;50.848;4.108;2023-06-01T04:54:12;12.30;99.90
19435;DHT22;9853;50.848;4.108;2023-06-01T04:56:13;12.30;99.90
19435;DHT22;9853;50.848;4.108;2023-06-01T04:58:14;12.40;99.90
19435;DHT22;9853;50.848;4.108;2023-06-01T05:00:18;12.40;99.90
19435;DHT22;9853;50.848;4.108;2023-06-01T05:02:24;12.30;99.90
19435;DHT22;9853;50.848;4.108;2023-06-01T05:04:33;12.40;99.90
19435;DHT22;9853;50.848;4.108;2023-06-01T05:06:48;12.30;99.90
19435;DHT22;9853;50.848;4.108;2023-06-01T05:08:49;12.30;99.90
19435;DHT22;9853;50.848;4.108;2023-06-01T05:10:51;12.30;99.90
19435;DHT22;9853;50.848;4.108;2023-06-01T05:12:52;12.30;99.90
19435;DHT22;9853;50.848;4.108;2023-06-01T05:14:53;12.20;99.90
19435;DHT22;9853;50.848;4.108;2023-06-01T05:16:53;12.20;99.90
19435;DHT22;9853;50.848;4.108;2023-06-01T05:18:56;12.10;99.90
19435;DHT22;9853;50.848;4.108;2023-06-01T05:20:57;12.20;99.90
19435;DHT22;9853;50.848;4.108;2023-06-01T05:22:58;12.20;99.90
19435;DHT22;9853;50.848;4.108;2023-06-01T05:24:58;12.20;99.90
19435;DHT22;9853;50.848;4.108;2023-06-01T05:26:59;12.20;99.90
19435;DHT22;9853;50.848;4.108;2023-06-01T05:29:01;12.30;99.90
19435;DHT22;9853;50.848;4.108;2023-06-01T05:31:07;12.30;99.90
19435;DHT22;9853;50.848;4.108;2023-06-01T05:33:14;12.30;99.90
19435;DHT22;9853;50.848;4.108;2023-06-01T05:35:15;12.40;99.90
19435;DHT22;9853;50.848;4.108;2023-06-01T05:37:16;12.40;99.90
19435;DHT22;9853;50.848;4.108;2023-06-01T05:39:17;12.30;99.90
19435;DHT22;9853;50.848;4.108;2023-06-01T05:41:18;12.30;99.90
19435;DHT22;9853;50.848;4.108;2023-06-01T05:43:19;12.30;99.90
19435;DHT22;9853;50.848;4.108;2023-06-01T05:45:20;12.30;99.90
19435;DHT22;9853;50.848;4.108;2023-06-01T05:47:21;12.30;99.90
19435;DHT22;9853;50.848;4.108;2023-06-01T05:49:22;12.30;99.90
19435;DHT22;9853;50.848;4.108;2023-06-01T05:51:23;12.50;99.90
19435;DHT22;9853;50.848;4.108;2023-06-01T05:53:30;12.60;99.90
19435;DHT22;9853;50.848;4.108;2023-06-01T05:55:33;12.70;99.90
19435;DHT22;9853;50.848;4.108;2023-06-01T05:57:34;12.80;99.90
19435;DHT22;9853;50.848;4.108;2023-06-01T05:59:38;12.80;99.90
19435;DHT22;9853;50.848;4.108;2023-06-01T06:01:39;12.80;99.90
19435;DHT22;9853;50.848;4.108;2023-06-01T06:03:48;12.80;99.90
19435;DHT22;9853;50.848;4.108;2023-06-01T06:05:49;12.90;99.90
19435;DHT22;9853;50.848;4.108;2023-06-01T06:07:50;12.90;99.90
19435;DHT22;9853;50.848;4.108;2023-06-01T06:09:51;13.00;99.90
19435;DHT22;9853;50.848;4.108;2023-06-01T06:11:51;12.90;99.90
19435;DHT22;9853;50.848;4.108;2023-06-01T06:13:56;12.90;99.90
19435;DHT22;9853;50.848;4.108;2023-06-01T06:15:56;12.80;99.90
19435;DHT22;9853;50.848;4.108;2023-06-01T06:17:57;12.70;99.90
19435;DHT22;9853;50.848;4.108;2023-06-01T06:19:58;12.70;99.90
19435;DHT22;9853;50.848;4.108;2023-06-01T06:22:06;12.70;99.90
19435;DHT22;9853;50.848;4.108;2023-06-01T06:24:08;12.70;99.90
19435;DHT22;9853;50.848;4.108;2023-06-01T06:26:09;12.70;99.90
19435;DHT22;9853;50.848;4.108;2023-06-01T06:28:10;12.80;99.90
19435;DHT22;9853;50.848;4.108;2023-06-01T06:30:11;12.90;99.90
19435;DHT22;9853;50.848;4.108;2023-06-01T06:32:12;12.90;99.90
19435;DHT22;9853;50.848;4.108;2023-06-01T06:34:15;13.20;99.90
19435;DHT22;9853;50.848;4.108;2023-06-01T06:36:19;13.40;99.90
19435;DHT22;9853;50.848;4.108;2023-06-01T06:38:21;13.50;99.90
19435;DHT22;9853;50.848;4.108;2023-06-01T06:40:22;13.60;99.90
19435;DHT22;9853;50.848;4.108;2023-06-01T06:42:26;13.50;99.90
19435;DHT22;9853;50.848;4.108;2023-06-01T06:44:28;13.50;99.90
19435;DHT22;9853;50.848;4.108;2023-06-01T06:46:29;13.50;99.90
19435;DHT22;9853;50.848;4.108;2023-06-01T06:48:30;13.50;99.90
19435;DHT22;9853;50.848;4.108;2023-06-01T06:50:31;13.60;99.90
19435;DHT22;9853;50.848;4.108;2023-06-01T06:52:31;13.70;99.90
19435;DHT22;9853;50.848;4.108;2023-06-01T06:54:33;13.70;99.90
19435;DHT22;9853;50.848;4.108;2023-06-01T06:56:34;13.70;99.90
19435;DHT22;9853;50.848;4.108;2023-06-01T06:58:35;13.80;99.90
19435;DHT22;9853;50.848;4.108;2023-06-01T07:00:37;13.90;99.90
19435;DHT22;9853;50.848;4.108;2023-06-01T07:02:37;14.00;99.90
19435;DHT22;9853;50.848;4.108;2023-06-01T07:04:39;14.00;99.90
19435;DHT22;9853;50.848;4.108;2023-06-01T07:06:44;14.20;99.90
19435;DHT22;9853;50.848;4.108;2023-06-01T07:08:45;14.40;99.90
19435;DHT22;9853;50.848;4.108;2023-06-01T07:10:45;14.40;99.90
19435;DHT22;9853;50.848;4.108;2023-06-01T07:12:46;14.40;99.90
19435;DHT22;9853;50.848;4.108;2023-06-01T07:14:47;14.30;99.90
19435;DHT22;9853;50.848;4.108;2023-06-01T07:16:47;14.20;99.90
19435;DHT22;9853;50.848;4.108;2023-06-01T07:18:51;14.20;99.90
19435;DHT22;9853;50.848;4.108;2023-06-01T07:20:52;14.20;99.90
19435;DHT22;9853;50.848;4.108;2023-06-01T07:22:57;14.40;99.90
19435;DHT22;9853;50.848;4.108;2023-06-01T07:25:01;14.50;99.90
19435;DHT22;9853;50.848;4.108;2023-06-01T07:27:05;14.70;99.90
19435;DHT22;9853;50.848;4.108;2023-06-01T07:29:08;14.90;99.90
19435;DHT22;9853;50.848;4.108;2023-06-01T07:31:17;15.00;99.90
19435;DHT22;9853;50.848;4.108;2023-06-01T07:33:21;15.20;99.90
19435;DHT22;9853;50.848;4.108;2023-06-01T07:35:23;15.50;99.90
19435;DHT22;9853;50.848;4.108;2023-06-01T07:37:30;15.90;99.90
19435;DHT22;9853;50.848;4.108;2023-06-01T07:39:32;16.00;99.90
19435;DHT22;9853;50.848;4.108;2023-06-01T07:41:33;16.10;99.90
19435;DHT22;9853;50.848;4.108;2023-06-01T07:43:38;16.00;99.90
19435;DHT22;9853;50.848;4.108;2023-06-01T07:45:39;15.80;99.90
19435;DHT22;9853;50.848;4.108;2023-06-01T07:47:41;15.60;99.90
19435;DHT22;9853;50.848;4.108;2023-06-01T07:49:41;15.50;99.90
19435;DHT22;9853;50.848;4.108;2023-06-01T07:51:42;15.60;99.90
19435;DHT22;9853;50.848;4.108;2023-06-01T07:53:44;15.90;99.90
19435;DHT22;9853;50.848;4.108;2023-06-01T07:55:48;16.00;99.90
19435;DHT22;9853;50.848;4.108;2023-06-01T07:57:52;15.90;99.90
19435;DHT22;9853;50.848;4.108;2023-06-01T07:59:53;16.00;99.90
19435;DHT22;9853;50.848;4.108;2023-06-01T08:01:57;15.90;99.90
19435;DHT22;9853;50.848;4.108;2023-06-01T08:03:59;16.00;99.90
19435;DHT22;9853;50.848;4.108;2023-06-01T08:06:02;16.10;99.90
19435;DHT22;9853;50.848;4.108;2023-06-01T08:08:08;16.00;99.90
19435;DHT22;9853;50.848;4.108;2023-06-01T08:10:09;16.00;99.90
19435;DHT22;9853;50.848;4.108;2023-06-01T08:12:11;16.20;99.90
19435;DHT22;9853;50.848;4.108;2023-06-01T08:14:12;16.50;99.90
19435;DHT22;9853;50.848;4.108;2023-06-01T08:16:13;16.70;99.90
19435;DHT22;9853;50.848;4.108;2023-06-01T08:18:17;17.40;99.90
19435;DHT22;9853;50.848;4.108;2023-06-01T08:20:22;18.10;99.90
19435;DHT22;9853;50.848;4.108;2023-06-01T08:22:24;18.70;99.90
19435;DHT22;9853;50.848;4.108;2023-06-01T08:24:24;19.10;99.90
19435;DHT22;9853;50.848;4.108;2023-06-01T08:26:25;19.80;99.90
19435;DHT22;9853;50.848;4.108;2023-06-01T08:28:26;20.40;99.90
19435;DHT22;9853;50.848;4.108;2023-06-01T08:30:27;20.20;99.90
19435;DHT22;9853;50.848;4.108;2023-06-01T08:32:31;19.90;99.90
19435;DHT22;9853;50.848;4.108;2023-06-01T08:34:32;18.90;99.90
19435;DHT22;9853;50.848;4.108;2023-06-01T08:36:36;19.10;99.90
19435;DHT22;9853;50.848;4.108;2023-06-01T08:38:37;19.40;99.90
19435;DHT22;9853;50.848;4.108;2023-06-01T08:40:37;19.60;99.90
19435;DHT22;9853;50.848;4.108;2023-06-01T08:44:58;20.30;99.90
19435;DHT22;9853;50.848;4.108;2023-06-01T08:47:01;20.70;99.90
19435;DHT22;9853;50.848;4.108;2023-06-01T08:49:02;20.80;99.90
19435;DHT22;9853;50.848;4.108;2023-06-01T08:51:07;20.60;99.90
19435;DHT22;9853;50.848;4.108;2023-06-01T08:53:28;20.50;99.90
19435;DHT22;9853;50.848;4.108;2023-06-01T08:55:33;20.80;99.90
19435;DHT22;9853;50.848;4.108;2023-06-01T08:57:34;20.70;99.90
19435;DHT22;9853;50.848;4.108;2023-06-01T08:59:36;20.40;99.90
19435;DHT22;9853;50.848;4.108;2023-06-01T09:01:39;20.40;99.90
19435;DHT22;9853;50.848;4.108;2023-06-01T09:03:45;20.30;99.90
19435;DHT22;9853;50.848;4.108;2023-06-01T09:05:46;20.20;99.90
19435;DHT22;9853;50.848;4.108;2023-06-01T09:07:48;20.40;99.90
19435;DHT22;9853;50.848;4.108;2023-06-01T09:09:50;20.70;99.90
19435;DHT22;9853;50.848;4.108;2023-06-01T09:14:24;21.60;99.90
19435;DHT22;9853;50.848;4.108;2023-06-01T09:16:35;21.30;99.90
19435;DHT22;9853;50.848;4.108;2023-06-01T09:18:55;21.10;99.90
19435;DHT22;9853;50.848;4.108;2023-06-01T09:21:12;21.20;99.90
19435;DHT22;9853;50.848;4.108;2023-06-01T09:23:26;21.50;99.90
19435;DHT22;9853;50.848;4.108;2023-06-01T09:25:29;21.10;99.90
19435;DHT22;9853;50.848;4.108;2023-06-01T09:27:45;20.90;99.90
19435;DHT22;9853;50.848;4.108;2023-06-01T09:29:58;21.20;99.90
19435;DHT22;9853;50.848;4.108;2023-06-01T09:32:02;21.30;99.90
19435;DHT22;9853;50.848;4.108;2023-06-01T09:34:03;21.50;99.90
19435;DHT22;9853;50.848;4.108;2023-06-01T09:36:05;21.30;99.90
19435;DHT22;9853;50.848;4.108;2023-06-01T09:38:07;21.20;99.90
19435;DHT22;9853;50.848;4.108;2023-06-01T09:40:17;21.40;99.90
19435;DHT22;9853;50.848;4.108;2023-06-01T09:42:34;21.30;99.90
19435;DHT22;9853;50.848;4.108;2023-06-01T09:44:39;22.10;99.90
19435;DHT22;9853;50.848;4.108;2023-06-01T09:46:57;22.80;99.90
19435;DHT22;9853;50.848;4.108;2023-06-01T09:49:07;22.50;99.90
19435;DHT22;9853;50.848;4.108;2023-06-01T09:51:22;21.90;99.90
19435;DHT22;9853;50.848;4.108;2023-06-01T09:53:42;21.40;99.90
19435;DHT22;9853;50.848;4.108;2023-06-01T09:55:57;21.30;99.90
19435;DHT22;9853;50.848;4.108;2023-06-01T09:58:18;21.60;99.90
19435;DHT22;9853;50.848;4.108;2023-06-01T10:00:23;22.10;99.90
19435;DHT22;9853;50.848;4.108;2023-06-01T10:02:32;22.20;99.90
19435;DHT22;9853;50.848;4.108;2023-06-01T10:04:35;22.10;99.90
19435;DHT22;9853;50.848;4.108;2023-06-01T10:06:40;21.80;99.90
19435;DHT22;9853;50.848;4.108;2023-06-01T10:08:44;21.20;99.90
19435;DHT22;9853;50.848;4.108;2023-06-01T10:10:56;21.60;99.90
19435;DHT22;9853;50.848;4.108;2023-06-01T10:13:00;21.80;99.90
19435;DHT22;9853;50.848;4.108;2023-06-01T10:15:01;21.80;99.90
19435;DHT22;9853;50.848;4.108;2023-06-01T10:17:04;22.00;99.90
19435;DHT22;9853;50.848;4.108;2023-06-01T10:19:05;22.30;99.90
19435;DHT22;9853;50.848;4.108;2023-06-01T10:21:07;22.50;99.90
19435;DHT22;9853;50.848;4.108;2023-06-01T10:23:10;22.60;99.90
19435;DHT22;9853;50.848;4.108;2023-06-01T10:25:12;22.50;99.90
19435;DHT22;9853;50.848;4.108;2023-06-01T10:29:24;21.40;99.90
19435;DHT22;9853;50.848;4.108;2023-06-01T10:33:52;20.40;99.90
19435;DHT22;9853;50.848;4.108;2023-06-01T10:35:59;20.30;99.90
19435;DHT22;9853;50.848;4.108;2023-06-01T10:46:44;20.40;99.90
19435;DHT22;9853;50.848;4.108;2023-06-01T10:48:54;20.40;99.90
19435;DHT22;9853;50.848;4.108;2023-06-01T10:51:19;20.50;99.90
19435;DHT22;9853;50.848;4.108;2023-06-01T10:53:26;20.60;99.90
19435;DHT22;9853;50.848;4.108;2023-06-01T10:55:27;20.80;99.90
19435;DHT22;9853;50.848;4.108;2023-06-01T10:57:29;20.70;99.90
19435;DHT22;9853;50.848;4.108;2023-06-01T10:59:31;20.50;99.90
19435;DHT22;9853;50.848;4.108;2023-06-01T11:01:45;20.40;99.90
19435;DHT22;9853;50.848;4.108;2023-06-01T11:03:48;20.40;99.90
19435;DHT22;9853;50.848;4.108;2023-06-01T11:05:51;20.40;99.90
19435;DHT22;9853;50.848;4.108;2023-06-01T11:07:52;20.50;99.90
19435;DHT22;9853;50.848;4.108;2023-06-01T11:09:56;20.60;99.90
19435;DHT22;9853;50.848;4.108;2023-06-01T11:12:05;20.60;99.90
19435;DHT22;9853;50.848;4.108;2023-06-01T11:14:07;20.70;99.90
19435;DHT22;9853;50.848;4.108;2023-06-01T11:20:58;20.60;99.90
19435;DHT22;9853;50.848;4.108;2023-06-01T11:23:01;20.80;99.90
19435;DHT22;9853;50.848;4.108;2023-06-01T11:25:07;20.70;99.90
19435;DHT22;9853;50.848;4.108;2023-06-01T11:27:23;20.80;99.90
19435;DHT22;9853;50.848;4.108;2023-06-01T11:29:29;20.80;99.90
19435;DHT22;9853;50.848;4.108;2023-06-01T11:31:58;20.70;99.90
19435;DHT22;9853;50.848;4.108;2023-06-01T11:33:58;20.50;99.90
19435;DHT22;9853;50.848;4.108;2023-06-01T11:36:02;20.60;99.90
19435;DHT22;9853;50.848;4.108;2023-06-01T11:38:06;20.60;99.90
19435;DHT22;9853;50.848;4.108;2023-06-01T11:40:07;20.60;99.90
19435;DHT22;9853;50.848;4.108;2023-06-01T11:42:14;20.50;99.90
19435;DHT22;9853;50.848;4.108;2023-06-01T11:44:18;20.70;99.90
19435;DHT22;9853;50.848;4.108;2023-06-01T11:46:19;20.80;99.90
19435;DHT22;9853;50.848;4.108;2023-06-01T11:48:20;21.10;99.90
19435;DHT22;9853;50.848;4.108;2023-06-01T11:50:23;21.30;99.90
19435;DHT22;9853;50.848;4.108;2023-06-01T11:52:28;21.30;99.90
19435;DHT22;9853;50.848;4.108;2023-06-01T11:54:29;21.60;99.90
19435;DHT22;9853;50.848;4.108;2023-06-01T11:56:31;21.60;99.90
19435;DHT22;9853;50.848;4.108;2023-06-01T11:58:35;21.50;99.90
19435;DHT22;9853;50.848;4.108;2023-06-01T12:00:38;21.20;99.90
19435;DHT22;9853;50.848;4.108;2023-06-01T12:02:39;21.20;99.90
19435;DHT22;9853;50.848;4.108;2023-06-01T12:05:00;21.30;99.90
19435;DHT22;9853;50.848;4.108;2023-06-01T12:07:20;21.40;99.90
19435;DHT22;9853;50.848;4.108;2023-06-01T12:09:21;21.50;99.90
19435;DHT22;9853;50.848;4.108;2023-06-01T12:11:27;21.40;99.90
19435;DHT22;9853;50.848;4.108;2023-06-01T12:13:28;21.30;99.90
19435;DHT22;9853;50.848;4.108;2023-06-01T12:15:30;21.50;99.90
19435;DHT22;9853;50.848;4.108;2023-06-01T12:17:53;21.50;99.90
19435;DHT22;9853;50.848;4.108;2023-06-01T12:19:54;21.60;99.90
19435;DHT22;9853;50.848;4.108;2023-06-01T12:21:56;21.70;99.90
19435;DHT22;9853;50.848;4.108;2023-06-01T12:23:57;21.70;99.90
19435;DHT22;9853;50.848;4.108;2023-06-01T12:25:58;21.60;99.90
19435;DHT22;9853;50.848;4.108;2023-06-01T12:28:06;21.50;99.90
19435;DHT22;9853;50.848;4.108;2023-06-01T12:30:28;21.70;99.90
19435;DHT22;9853;50.848;4.108;2023-06-01T12:32:38;21.80;99.90
19435;DHT22;9853;50.848;4.108;2023-06-01T12:34:39;21.80;99.90
19435;DHT22;9853;50.848;4.108;2023-06-01T12:36:40;22.00;99.90
19435;DHT22;9853;50.848;4.108;2023-06-01T12:38:51;22.10;99.90
19435;DHT22;9853;50.848;4.108;2023-06-01T12:41:08;22.10;99.90
19435;DHT22;9853;50.848;4.108;2023-06-01T12:43:19;22.10;99.90
19435;DHT22;9853;50.848;4.108;2023-06-01T12:45:21;22.00;99.90
19435;DHT22;9853;50.848;4.108;2023-06-01T12:47:24;21.90;99.90
19435;DHT22;9853;50.848;4.108;2023-06-01T12:49:27;22.10;99.90
19435;DHT22;9853;50.848;4.108;2023-06-01T12:51:28;21.90;99.90
19435;DHT22;9853;50.848;4.108;2023-06-01T12:53:29;21.90;99.90
19435;DHT22;9853;50.848;4.108;2023-06-01T12:55:30;22.00;99.90
19435;DHT22;9853;50.848;4.108;2023-06-01T12:57:31;22.20;99.90
19435;DHT22;9853;50.848;4.108;2023-06-01T12:59:32;22.40;99.90
19435;DHT22;9853;50.848;4.108;2023-06-01T13:01:34;22.40;99.90
19435;DHT22;9853;50.848;4.108;2023-06-01T13:03:36;22.40;99.90
19435;DHT22;9853;50.848;4.108;2023-06-01T13:05:37;22.30;99.90
19435;DHT22;9853;50.848;4.108;2023-06-01T13:07:38;22.20;99.90
19435;DHT22;9853;50.848;4.108;2023-06-01T13:09:38;22.20;99.90
19435;DHT22;9853;50.848;4.108;2023-06-01T13:11:40;22.20;99.90
19435;DHT22;9853;50.848;4.108;2023-06-01T13:13:41;22.20;99.90
19435;DHT22;9853;50.848;4.108;2023-06-01T13:15:44;22.30;99.90
19435;DHT22;9853;50.848;4.108;2023-06-01T13:17:45;22.20;99.90
19435;DHT22;9853;50.848;4.108;2023-06-01T13:19:47;22.20;99.90
19435;DHT22;9853;50.848;4.108;2023-06-01T13:21:51;22.30;99.90
19435;DHT22;9853;50.848;4.108;2023-06-01T13:23:52;22.50;99.90
19435;DHT22;9853;50.848;4.108;2023-06-01T13:25:53;22.80;99.90
19435;DHT22;9853;50.848;4.108;2023-06-01T13:27:54;23.10;99.90
19435;DHT22;9853;50.848;4.108;2023-06-01T13:29:54;22.90;99.90
19435;DHT22;9853;50.848;4.108;2023-06-01T13:32:02;22.80;99.90
19435;DHT22;9853;50.848;4.108;2023-06-01T13:34:03;22.60;99.90
19435;DHT22;9853;50.848;4.108;2023-06-01T13:36:04;22.60;99.90
19435;DHT22;9853;50.848;4.108;2023-06-01T13:38:06;22.60;99.90
19435;DHT22;9853;50.848;4.108;2023-06-01T13:40:07;22.70;99.90
19435;DHT22;9853;50.848;4.108;2023-06-01T13:42:08;22.80;99.90
19435;DHT22;9853;50.848;4.108;2023-06-01T13:44:09;22.70;99.90
19435;DHT22;9853;50.848;4.108;2023-06-01T13:46:10;22.40;99.90
19435;DHT22;9853;50.848;4.108;2023-06-01T13:48:11;22.20;99.90